Time;durP1;ratioP1;P1;durP2;ratioP2;P2;SDS_P1;SDS_P2;PMS_P1;PMS_P2;Temp;Humidity;BMP_temperature;BMP_pressure;BME280_temperature;BME280_humidity;BME280_pressure;Samples;Min_cycle;Max_cycle;Signal;HPM_P1;HPM_P2
2023/01/16 00:02:00;;;;;;;;;50.33;41.67;;;;;3.65;90.78;98752.81;5095325;27;45645;-78
2023/01/16 00:04:36;;;;;;;;;49.00;42.00;;;;;3.62;90.87;98748.50;5089516;27;45421;-78
2023/01/16 00:07:02;;;;;;;;;45.67;40.67;;;;;3.60;91.30;98739.00;5088511;27;45675;-78
2023/01/16 00:09:27;;;;;;;;;53.00;40.67;;;;;3.58;91.37;98735.53;5084936;27;45420;-77
2023/01/16 00:11:53;;;;;;;;;41.00;36.00;;;;;3.58;91.44;98730.34;5094033;27;45514;-78
2023/01/16 00:14:18;;;;;;;;;39.33;37.33;;;;;3.56;91.33;98716.47;5087092;27;45369;-79
2023/01/16 00:16:43;;;;;;;;;47.33;38.67;;;;;3.54;91.36;98710.41;5077474;27;46720;-79
2023/01/16 00:19:09;;;;;;;;;44.00;38.33;;;;;3.55;91.56;98717.34;5088046;27;45455;-79
2023/01/16 00:21:37;;;;;;;;;46.67;40.00;;;;;3.53;91.53;98711.31;5086645;27;45383;-80
2023/01/16 00:24:03;;;;;;;;;43.67;37.00;;;;;3.54;91.75;98711.28;5078209;27;45565;-79
2023/01/16 00:26:30;;;;;;;;;46.33;40.33;;;;;3.53;91.64;98700.88;5077130;27;46784;-79
2023/01/16 00:28:55;;;;;;;;;45.67;42.00;;;;;3.53;91.83;98686.09;5092577;27;45374;-79
2023/01/16 00:31:23;;;;;;;;;43.33;38.67;;;;;3.55;91.92;98681.72;5093823;27;45335;-80
2023/01/16 00:33:48;;;;;;;;;52.33;41.33;;;;;3.57;91.87;98684.31;5091427;27;45480;-80
2023/01/16 00:36:14;;;;;;;;;54.67;42.67;;;;;3.57;91.95;98673.88;5075378;27;47563;-80
2023/01/16 00:38:40;;;;;;;;;57.67;42.00;;;;;3.55;91.95;98666.09;5090843;27;45447;-80
2023/01/16 00:41:05;;;;;;;;;58.00;46.33;;;;;3.52;92.17;98662.72;5094541;27;45433;-80
2023/01/16 00:43:31;;;;;;;;;50.33;42.33;;;;;3.49;92.18;98648.00;5092816;27;45610;-79
2023/01/16 00:45:57;;;;;;;;;49.67;42.00;;;;;3.46;92.01;98641.09;5094142;27;45674;-79
2023/01/16 00:48:23;;;;;;;;;50.00;41.33;;;;;3.45;91.95;98635.91;5093479;27;45587;-79
2023/01/16 00:50:49;;;;;;;;;55.67;43.00;;;;;3.42;91.94;98634.22;5097410;27;45423;-80
2023/01/16 00:53:15;;;;;;;;;50.00;40.67;;;;;3.40;91.58;98635.13;5095500;27;45434;-80
2023/01/16 00:55:41;;;;;;;;;47.00;40.33;;;;;3.39;91.80;98629.06;5073660;28;48088;-80
2023/01/16 00:58:08;;;;;;;;;44.67;37.33;;;;;3.38;92.02;98626.47;5093444;27;45339;-80
2023/01/16 01:00:34;;;;;;;;;44.67;38.00;;;;;3.36;91.90;98610.88;5093796;27;45455;-80
2023/01/16 01:03:00;;;;;;;;;41.33;35.00;;;;;3.35;91.73;98603.13;5091800;27;45323;-80
2023/01/16 01:05:25;;;;;;;;;60.33;41.33;;;;;3.35;91.93;98610.94;5065284;28;46355;-80
2023/01/16 01:07:51;;;;;;;;;54.33;43.00;;;;;3.32;92.21;98598.81;5092362;27;45554;-81
2023/01/16 01:10:16;;;;;;;;;57.00;44.33;;;;;3.33;92.12;98607.50;5089766;27;45562;-81
2023/01/16 01:12:41;;;;;;;;;51.33;42.00;;;;;3.30;92.17;98600.59;5092017;27;45472;-81
2023/01/16 01:15:07;;;;;;;;;51.33;43.33;;;;;3.30;92.10;98589.31;5076698;27;46989;-80
2023/01/16 01:17:32;;;;;;;;;40.00;38.33;;;;;3.26;92.03;98583.28;5095019;27;45409;-80
2023/01/16 01:19:58;;;;;;;;;48.33;41.00;;;;;3.24;92.16;98577.25;5095347;27;45482;-80
2023/01/16 01:22:23;;;;;;;;;49.33;38.33;;;;;3.22;92.22;98579.03;5094116;27;45428;-80
2023/01/16 01:24:49;;;;;;;;;44.00;38.00;;;;;3.21;92.19;98577.31;5086163;27;46072;-80
2023/01/16 01:27:16;;;;;;;;;49.67;43.00;;;;;3.20;92.29;98572.13;5097040;27;46058;-80
2023/01/16 01:29:42;;;;;;;;;43.67;38.67;;;;;3.18;92.50;98569.59;5085760;27;45555;-80
2023/01/16 01:32:08;;;;;;;;;45.67;40.00;;;;;3.17;92.47;98564.41;5094428;27;45443;-80
2023/01/16 01:34:34;;;;;;;;;57.33;45.00;;;;;3.14;92.63;98563.56;5094847;27;45988;-80
2023/01/16 01:37:01;;;;;;;;;64.67;45.00;;;;;3.14;92.55;98557.50;5071597;28;45389;-80
2023/01/16 01:39:27;;;;;;;;;58.33;42.67;;;;;3.10;92.06;98551.47;5090120;27;45437;-80
2023/01/16 01:42:41;;;;;;;;;57.00;44.67;;;;;3.05;92.04;98542.03;5095016;27;45691;-80
2023/01/16 01:44:51;;;;;;;;;47.33;41.33;;;;;3.04;91.68;98546.38;5088728;27;46104;-80
2023/01/16 01:47:20;;;;;;;;;41.67;39.00;;;;;2.99;91.60;98548.25;5094534;27;45293;-80
2023/01/16 01:49:47;;;;;;;;;47.33;41.00;;;;;2.94;91.82;98544.84;5094756;27;45454;-80
2023/01/16 01:52:13;;;;;;;;;46.67;38.67;;;;;2.93;91.71;98537.06;5094133;27;45435;-80
2023/01/16 01:54:44;;;;;;;;;43.67;38.67;;;;;2.90;91.64;98530.16;5094308;27;46366;-79
2023/01/16 01:57:16;;;;;;;;;50.00;40.67;;;;;2.88;91.68;98515.47;5094861;27;45409;-80
2023/01/16 01:59:46;;;;;;;;;48.33;39.67;;;;;2.89;91.99;98509.38;5094645;27;45442;-80
2023/01/16 02:02:18;;;;;;;;;44.67;36.67;;;;;2.86;91.89;98492.06;5075628;27;45487;-80
2023/01/16 02:04:46;;;;;;;;;42.00;34.67;;;;;2.86;92.18;98492.06;5084393;27;45546;-80
2023/01/16 02:07:15;;;;;;;;;45.00;39.00;;;;;2.86;92.24;98499.88;5094549;27;45465;-80
2023/01/16 02:09:41;;;;;;;;;57.67;42.00;;;;;2.86;92.73;98486.84;5084693;27;45459;-80
2023/01/16 02:12:09;;;;;;;;;55.00;43.33;;;;;2.87;92.85;98483.38;5098177;27;45319;-80
2023/01/16 02:14:41;;;;;;;;;46.00;38.67;;;;;2.89;92.78;98483.34;5095207;27;45549;-80
2023/01/16 02:20:04;;;;;;;;;55.33;43.33;;;;;2.90;92.75;98480.72;5096141;27;45387;-81
2023/01/16 02:22:57;;;;;;;;;44.00;39.00;;;;;2.90;92.74;98459.03;5097158;27;45383;-80
2023/01/16 02:25:49;;;;;;;;;46.00;38.00;;;;;2.87;93.15;98444.31;5096201;27;46411;-80
2023/01/16 02:28:32;;;;;;;;;39.00;35.67;;;;;2.87;92.92;98433.91;5032653;28;45457;-80
2023/01/16 02:31:10;;;;;;;;;50.33;37.00;;;;;2.88;92.88;98422.63;5093409;27;45452;-80
2023/01/16 02:34:26;;;;;;;;;39.33;33.67;;;;;2.86;93.01;98408.78;5089541;27;45475;-81
2023/01/16 02:37:28;;;;;;;;;43.00;33.67;;;;;2.86;92.94;98402.69;5061923;27;45661;-80
2023/01/16 02:40:13;;;;;;;;;38.33;32.00;;;;;2.83;92.48;98393.25;5094531;27;45510;-81
2023/01/16 02:43:43;;;;;;;;;41.67;32.33;;;;;2.80;92.20;98388.94;5079015;27;45507;-80
2023/01/16 02:46:14;;;;;;;;;33.67;24.00;;;;;2.75;92.42;98384.72;5029278;28;45526;-80
2023/01/16 02:49:01;;;;;;;;;28.00;24.33;;;;;2.74;92.37;98380.41;5026408;28;45544;-80
2023/01/16 02:51:27;;;;;;;;;39.67;31.00;;;;;2.72;92.67;98366.56;5100037;27;45434;-80
2023/01/16 02:54:21;;;;;;;;;51.67;39.00;;;;;2.73;92.33;98355.25;5096149;27;45403;-80
2023/01/16 02:56:57;;;;;;;;;49.67;38.33;;;;;2.71;92.37;98338.81;5046541;27;45763;-80
2023/01/16 02:59:27;;;;;;;;;40.33;37.00;;;;;2.67;92.56;98332.84;5108366;27;47208;-81
2023/01/16 03:01:52;;;;;;;;;50.67;41.00;;;;;2.62;92.45;98326.88;5086186;27;45447;-80
2023/01/16 03:04:36;;;;;;;;;41.00;35.33;;;;;2.62;92.54;98326.88;5097509;27;45424;-80
2023/01/16 03:07:32;;;;;;;;;53.33;43.00;;;;;2.60;92.50;98315.66;5097263;27;45487;-80
2023/01/16 03:10:06;;;;;;;;;48.00;39.67;;;;;2.58;92.72;98300.94;5092831;27;45452;-81
2023/01/16 03:13:10;;;;;;;;;60.67;45.33;;;;;2.58;93.09;98296.59;5095428;27;45506;-81
2023/01/16 03:15:52;;;;;;;;;44.33;40.33;;;;;2.58;92.99;98283.59;5096912;27;45434;-81
2023/01/16 03:18:39;;;;;;;;;48.00;39.00;;;;;2.57;92.95;98268.88;5097012;27;45427;-80
2023/01/16 03:21:07;;;;;;;;;55.67;41.67;;;;;2.58;92.85;98256.72;5090136;27;46181;-80
2023/01/16 03:23:45;;;;;;;;;52.00;43.33;;;;;2.56;92.92;98248.09;5096258;27;45454;-80
2023/01/16 03:26:19;;;;;;;;;56.33;46.33;;;;;2.56;92.51;98245.50;5095093;27;45389;-80
2023/01/16 03:28:50;;;;;;;;;44.00;34.33;;;;;2.55;92.42;98229.03;5096540;27;45489;-80
2023/01/16 03:31:25;;;;;;;;;45.67;35.33;;;;;2.48;92.38;98217.06;5096662;27;45826;-80
2023/01/16 03:34:30;;;;;;;;;40.33;38.33;;;;;2.47;92.30;98196.28;5094863;27;45407;-80
2023/01/16 03:37:12;;;;;;;;;34.00;31.67;;;;;2.40;92.25;98191.22;4977602;28;45570;-80
2023/01/16 03:39:50;;;;;;;;;48.33;38.33;;;;;2.41;92.59;98190.31;5094855;27;45457;-80
2023/01/16 03:42:24;;;;;;;;;38.33;29.67;;;;;2.37;92.64;98175.66;5083915;27;45458;-80
2023/01/16 03:44:58;;;;;;;;;32.67;29.33;;;;;2.33;92.78;98162.78;5094038;27;45375;-80
2023/01/16 03:47:33;;;;;;;;;27.33;23.67;;;;;2.28;92.66;98143.84;5093724;27;45452;-80
2023/01/16 03:50:04;;;;;;;;;27.00;23.00;;;;;2.25;92.97;98141.28;5093021;27;45422;-80
2023/01/16 03:52:39;;;;;;;;;42.67;30.00;;;;;2.25;93.16;98136.94;5095190;27;46418;-79
2023/01/16 03:55:15;;;;;;;;;40.00;30.00;;;;;2.27;93.51;98132.56;5086922;27;45570;-79
2023/01/16 03:57:54;;;;;;;;;32.33;27.33;;;;;2.25;92.58;98117.88;5093774;27;45473;-80
2023/01/16 04:00:21;;;;;;;;;22.00;18.00;;;;;2.21;92.65;98114.50;5089541;27;45384;-80
2023/01/16 04:02:54;;;;;;;;;26.33;22.33;;;;;2.17;93.05;98099.88;5077852;27;46218;-80
2023/01/16 04:05:28;;;;;;;;;29.67;25.67;;;;;2.15;92.90;98093.00;5084081;27;45365;-80
2023/01/16 04:08:00;;;;;;;;;30.00;21.00;;;;;2.12;92.98;98085.28;5096460;27;45254;-79
2023/01/16 04:10:33;;;;;;;;;30.00;29.33;;;;;2.12;92.88;98083.53;5084850;27;45542;-80
2023/01/16 04:13:06;;;;;;;;;35.67;27.33;;;;;2.13;93.14;98079.19;5114955;27;47734;-80
2023/01/16 04:15:35;;;;;;;;;35.67;29.33;;;;;2.14;92.94;98075.69;5089962;27;45372;-80
2023/01/16 04:18:01;;;;;;;;;31.67;27.33;;;;;2.12;92.96;98062.72;5096058;27;45514;-80
2023/01/16 04:20:29;;;;;;;;;32.00;29.33;;;;;2.13;92.58;98058.38;5094641;27;45541;-80
2023/01/16 04:22:55;;;;;;;;;36.67;30.33;;;;;2.10;92.77;98064.50;5095904;27;45431;-80
2023/01/16 04:25:20;;;;;;;;;33.00;24.67;;;;;2.12;92.99;98046.28;5095559;27;45423;-80
2023/01/16 04:27:46;;;;;;;;;23.33;20.00;;;;;2.08;92.02;98041.16;5075599;27;45627;-80
2023/01/16 04:30:12;;;;;;;;;29.33;23.33;;;;;2.04;92.44;98016.09;5088358;27;45366;-80
2023/01/16 04:32:38;;;;;;;;;32.67;28.67;;;;;2.02;92.25;98012.69;5085805;27;45415;-80
2023/01/16 04:35:04;;;;;;;;;27.33;24.67;;;;;1.99;92.26;97989.41;5094134;27;45538;-80
2023/01/16 04:37:30;;;;;;;;;41.00;34.00;;;;;1.96;92.48;97978.22;5093786;27;45409;-80
2023/01/16 04:39:56;;;;;;;;;34.67;31.00;;;;;1.94;92.47;97954.84;5077575;27;45589;-80
2023/01/16 04:42:21;;;;;;;;;27.00;24.33;;;;;1.91;91.96;97949.72;5095688;27;46260;-80
2023/01/16 04:44:47;;;;;;;;;28.33;26.67;;;;;1.86;92.23;97935.13;5076955;27;45298;-80
2023/01/16 04:47:13;;;;;;;;;25.67;25.00;;;;;1.84;92.38;97935.19;5096115;27;45922;-80
2023/01/16 04:49:38;;;;;;;;;27.00;22.67;;;;;1.84;92.71;97931.75;5095718;27;45301;-81
2023/01/16 04:52:14;;;;;;;;;25.33;21.67;;;;;1.82;92.25;97920.53;5095890;27;45384;-80
2023/01/16 04:54:39;;;;;;;;;20.33;19.00;;;;;1.82;92.52;97913.59;5076860;27;45420;-80
2023/01/16 04:57:05;;;;;;;;;30.33;22.33;;;;;1.80;91.76;97888.53;5095894;27;45298;-80
2023/01/16 04:59:30;;;;;;;;;34.33;25.00;;;;;1.73;92.55;97896.47;5094890;27;45437;-80
2023/01/16 05:01:56;;;;;;;;;40.33;31.33;;;;;1.70;92.58;97886.16;5095050;27;45824;-80
2023/01/16 05:04:22;;;;;;;;;16.33;9.33;;;;;1.68;91.93;97868.88;5094986;27;45412;-80
2023/01/16 05:06:47;;;;;;;;;23.00;21.33;;;;;1.69;92.31;97873.19;5095778;27;45385;-80
2023/01/16 05:09:13;;;;;;;;;31.00;26.00;;;;;1.69;92.47;97868.84;5089762;27;45353;-80
2023/01/16 05:11:39;;;;;;;;;40.33;30.00;;;;;1.74;92.44;97869.59;5095531;27;45411;-80
2023/01/16 05:14:07;;;;;;;;;30.00;27.33;;;;;1.77;92.27;97852.22;5094470;27;45559;-80
2023/01/16 05:16:36;;;;;;;;;31.33;24.00;;;;;1.79;91.88;97827.94;5076156;27;45563;-80
2023/01/16 05:19:02;;;;;;;;;25.67;21.33;;;;;1.81;92.07;97826.16;5076366;27;45475;-80
2023/01/16 05:21:27;;;;;;;;;26.67;23.33;;;;;1.83;91.70;97813.13;5095150;27;46476;-80
2023/01/16 05:23:53;;;;;;;;;19.00;17.00;;;;;1.78;91.00;97796.78;5100348;27;45410;-80
2023/01/16 05:26:19;;;;;;;;;18.33;16.33;;;;;1.72;91.14;97802.97;5095115;27;45281;-80
2023/01/16 05:28:44;;;;;;;;;28.50;21.00;;;;;1.68;91.48;97777.97;5095036;27;45811;-80
2023/01/16 05:31:10;;;;;;;;;23.67;21.67;;;;;1.63;91.22;97756.47;5094625;27;45971;-80
2023/01/16 05:33:35;;;;;;;;;20.67;19.33;;;;;1.61;91.35;97769.50;5077005;27;45417;-80
2023/01/16 05:36:00;;;;;;;;;18.33;16.67;;;;;1.61;91.11;97748.72;5095614;27;45840;-80
2023/01/16 05:38:26;;;;;;;;;25.67;20.00;;;;;1.61;91.27;97756.53;5094723;27;45426;-80
2023/01/16 05:40:51;;;;;;;;;13.67;13.00;;;;;1.64;91.34;97761.63;5094862;27;46484;-80
2023/01/16 05:43:17;;;;;;;;;17.67;14.33;;;;;1.65;91.06;97754.69;5093692;27;45367;-80
2023/01/16 05:45:42;;;;;;;;;12.33;9.00;;;;;1.69;90.86;97751.09;5096905;27;45464;-80
2023/01/16 05:48:08;;;;;;;;;15.33;11.33;;;;;1.68;90.92;97745.06;5098406;27;45293;-80
2023/01/16 05:50:33;;;;;;;;;16.33;14.00;;;;;1.72;91.27;97756.22;5098066;27;46268;-80
2023/01/16 05:52:59;;;;;;;;;17.33;16.33;;;;;1.77;91.45;97758.72;5096737;27;45337;-80
2023/01/16 05:55:24;;;;;;;;;15.67;12.67;;;;;1.81;90.83;97758.59;5095886;27;45320;-80
2023/01/16 05:57:50;;;;;;;;;13.33;13.33;;;;;1.86;90.98;97732.47;5097608;27;45492;-80
2023/01/16 06:00:17;;;;;;;;;11.67;11.67;;;;;1.86;90.01;97729.88;5103046;27;46367;-80
2023/01/16 06:02:42;;;;;;;;;15.33;11.33;;;;;1.90;90.36;97731.50;5097968;27;45395;-80
2023/01/16 06:05:08;;;;;;;;;18.00;15.00;;;;;1.95;90.44;97708.84;5094653;27;45435;-80
2023/01/16 06:07:34;;;;;;;;;14.33;13.33;;;;;1.98;90.11;97720.00;5097719;27;45403;-81
2023/01/16 06:09:59;;;;;;;;;14.00;13.00;;;;;2.03;90.45;97725.03;5072741;27;45424;-80
2023/01/16 06:12:24;;;;;;;;;20.67;18.00;;;;;2.04;89.43;97725.00;5098118;27;45316;-79
2023/01/16 06:14:50;;;;;;;;;17.67;14.33;;;;;2.05;89.85;97724.09;5098640;27;45397;-80
2023/01/16 06:17:16;;;;;;;;;13.33;13.33;;;;;2.04;89.88;97718.94;5078614;27;45504;-80
2023/01/16 06:19:43;;;;;;;;;16.67;15.67;;;;;2.07;89.90;97711.06;5096700;27;46225;-80
2023/01/16 06:22:08;;;;;;;;;16.00;16.00;;;;;2.13;89.73;97707.47;5093003;27;45398;-80
2023/01/16 06:24:34;;;;;;;;;14.67;13.00;;;;;2.16;89.25;97713.41;5097304;27;45320;-80
2023/01/16 06:26:59;;;;;;;;;14.00;13.00;;;;;2.22;89.26;97709.78;5097720;27;45649;-80
2023/01/16 06:29:25;;;;;;;;;17.00;13.67;;;;;2.29;89.05;97706.97;5096886;27;45475;-81
2023/01/16 06:31:50;;;;;;;;;15.33;13.33;;;;;2.34;89.29;97699.03;5087770;27;45447;-81
2023/01/16 06:34:16;;;;;;;;;9.67;9.33;;;;;2.39;89.07;97700.56;5092516;27;45528;-80
2023/01/16 06:36:42;;;;;;;;;16.67;16.00;;;;;2.48;88.70;97709.00;5078056;27;45519;-80
2023/01/16 06:39:10;;;;;;;;;15.33;13.67;;;;;2.54;88.54;97698.41;5097249;27;46505;-81
2023/01/16 06:41:36;;;;;;;;;15.00;12.67;;;;;2.58;88.48;97705.22;5078085;27;45380;-80
2023/01/16 06:44:01;;;;;;;;;14.33;10.00;;;;;2.62;88.13;97702.47;5094545;27;45437;-82
2023/01/16 06:46:27;;;;;;;;;7.00;7.00;;;;;2.70;87.80;97708.28;5096319;27;45474;-82
2023/01/16 06:48:52;;;;;;;;;12.67;12.00;;;;;2.76;87.52;97686.41;5076970;27;48261;-82
2023/01/16 06:51:18;;;;;;;;;14.00;13.33;;;;;2.76;87.74;97700.28;5073764;27;45590;-82
2023/01/16 06:53:43;;;;;;;;;14.00;13.33;;;;;2.82;87.83;97720.06;5093590;27;45503;-84
2023/01/16 06:56:08;;;;;;;;;12.33;10.33;;;;;2.83;87.61;97698.34;5077498;27;45492;-83
2023/01/16 06:58:34;;;;;;;;;16.33;13.33;;;;;2.85;87.94;97690.50;5096054;27;45885;-82
2023/01/16 07:01:00;;;;;;;;;13.00;13.00;;;;;2.87;87.66;97696.47;5077416;27;45313;-83
2023/01/16 07:03:25;;;;;;;;;18.33;15.00;;;;;2.91;87.97;97688.53;5096508;27;45329;-83
2023/01/16 07:05:50;;;;;;;;;19.00;14.00;;;;;2.90;87.82;97702.44;5076961;27;45364;-83
2023/01/16 07:08:16;;;;;;;;;15.00;14.67;;;;;2.92;88.00;97699.78;5088266;27;47744;-83
2023/01/16 07:10:42;;;;;;;;;18.00;16.00;;;;;2.95;88.12;97710.09;5093408;27;45532;-82
2023/01/16 07:13:09;;;;;;;;;19.33;15.33;;;;;2.96;88.11;97673.63;5095738;27;45388;-83
2023/01/16 07:24:00;;;;;;;;;11.00;10.00;;;;;3.04;86.90;97670.75;5090563;27;45449;-82
2023/01/16 07:26:27;;;;;;;;;18.33;14.67;;;;;3.09;87.17;97676.66;5095936;27;45371;-84
2023/01/16 07:28:55;;;;;;;;;17.33;12.00;;;;;3.10;87.52;97686.16;5095745;27;46231;-82
2023/01/16 07:31:21;;;;;;;;;22.33;14.00;;;;;3.14;87.10;97686.03;5077552;27;45212;-82
2023/01/16 07:33:46;;;;;;;;;11.00;10.33;;;;;3.19;87.49;97683.25;5079963;27;45422;-84
2023/01/16 07:36:12;;;;;;;;;16.67;12.33;;;;;3.27;87.81;97662.16;5087489;27;45308;-83
2023/01/16 07:38:37;;;;;;;;;15.00;12.33;;;;;3.35;87.79;97681.81;5097059;27;45529;-86
2023/01/16 07:41:03;;;;;;;;;12.33;12.33;;;;;3.42;87.60;97677.25;5104985;27;45403;-85
2023/01/16 07:43:29;;;;;;;;;18.33;14.67;;;;;3.51;87.90;97671.75;5093981;27;45446;-79
2023/01/16 07:45:54;;;;;;;;;8.00;5.00;;;;;3.58;87.63;97672.38;5082907;27;45388;-89
2023/01/16 07:48:21;;;;;;;;;13.67;12.67;;;;;3.68;87.46;97685.03;5103487;27;46678;-89
2023/01/16 07:50:50;;;;;;;;;11.67;11.00;;;;;3.75;86.85;97670.84;5106847;27;45378;-90
2023/01/16 07:53:21;;;;;;;;;3.00;2.00;;;;;3.86;85.29;97660.03;5081250;27;45385;-90
2023/01/16 07:55:46;;;;;;;;;6.00;5.00;;;;;4.02;85.12;97655.13;5098626;27;45521;-90
2023/01/16 07:58:12;;;;;;;;;10.00;6.33;;;;;4.18;85.31;97656.25;5097585;27;46885;-89
2023/01/16 08:00:37;;;;;;;;;5.00;3.00;;;;;4.30;84.65;97655.78;5079705;27;45320;-90
2023/01/16 08:03:02;;;;;;;;;4.33;2.67;;;;;4.45;84.45;97668.22;5097941;27;44769;-90
2023/01/16 08:05:28;;;;;;;;;5.33;3.00;;;;;4.59;84.42;97664.22;5099853;27;45393;-89
2023/01/16 08:07:54;;;;;;;;;1.75;1.75;;;;;4.72;84.12;97644.53;5100474;27;47148;-89
2023/01/16 08:10:20;;;;;;;;;0.25;0.00;;;;;4.87;83.58;97631.69;5099808;27;45282;-90
2023/01/16 08:12:45;;;;;;;;;1.00;0.00;;;;;5.03;83.50;97636.28;5101068;27;45272;-89
2023/01/16 08:15:11;;;;;;;;;0.00;0.00;;;;;5.14;82.97;97621.88;5084507;27;45345;-90
2023/01/16 08:17:39;;;;;;;;;0.00;0.00;;;;;5.26;83.55;97631.81;5101182;27;47089;-90
2023/01/16 08:20:05;;;;;;;;;0.00;0.00;;;;;5.40;82.43;97614.69;5103478;27;45392;-89
2023/01/16 08:22:30;;;;;;;;;0.00;0.00;;;;;5.50;81.88;97618.59;5106384;27;45317;-90
2023/01/16 08:24:56;;;;;;;;;0.00;0.00;;;;;5.58;82.07;97606.88;5106844;27;44809;-90
2023/01/16 08:27:21;;;;;;;;;0.00;0.00;;;;;5.67;81.18;97603.03;5094132;28;46555;-90
2023/01/16 08:29:47;;;;;;;;;0.00;0.00;;;;;5.72;81.05;97598.41;5093690;28;44765;-87
2023/01/16 08:32:12;;;;;;;;;0.00;0.00;;;;;5.80;80.57;97588.47;5085060;28;44788;-88
2023/01/16 08:34:37;;;;;;;;;0.00;0.00;;;;;5.85;80.25;97583.88;5078174;28;45234;-90
2023/01/16 08:37:04;;;;;;;;;0.00;0.00;;;;;5.93;79.34;97583.56;5078350;28;47199;-89
2023/01/16 08:39:29;;;;;;;;;0.00;0.00;;;;;6.01;79.90;97572.75;5079232;28;45232;-90
2023/01/16 08:52:58;;;;;;;;;0.00;0.00;;;;;6.39;78.30;97552.59;5098068;27;45600;-88
2023/01/16 08:55:23;;;;;;;;;0.00;0.00;;;;;6.42;77.60;97552.44;5101620;27;45442;-89
2023/01/16 08:57:48;;;;;;;;;0.00;0.00;;;;;6.47;76.80;97545.22;5121937;27;46626;-88
2023/01/16 09:00:14;;;;;;;;;0.00;0.00;;;;;6.56;76.35;97557.84;5082467;27;45405;-88
2023/01/16 09:02:39;;;;;;;;;0.00;0.00;;;;;6.62;76.60;97534.84;5096341;27;45422;-89
2023/01/16 09:05:05;;;;;;;;;0.00;0.00;;;;;6.70;75.34;97537.09;5096235;27;45445;-89
2023/01/16 09:07:37;;;;;;;;;0.00;0.00;;;;;6.77;74.86;97520.13;5095900;27;47694;-89
2023/01/16 09:10:03;;;;;;;;;0.00;0.00;;;;;6.83;75.79;97530.31;5099685;27;45459;-88
2023/01/16 09:15:12;;;;;;;;;6.25;5.25;;;;;6.97;74.77;97519.97;5099856;27;45459;-89
2023/01/16 09:17:38;;;;;;;;;0.00;0.00;;;;;7.05;73.58;97521.34;5095886;27;47880;-89
2023/01/16 09:20:05;;;;;;;;;0.25;0.25;;;;;7.12;73.33;97507.84;5099934;27;45308;-88
2023/01/16 09:22:30;;;;;;;;;0.00;0.00;;;;;7.21;72.53;97517.84;5082651;27;45479;-88
2023/01/16 09:24:56;;;;;;;;;2.00;0.00;;;;;7.29;72.60;97514.81;5095824;27;45488;-89
2023/01/16 09:27:24;;;;;;;;;0.00;0.00;;;;;7.41;71.69;97513.31;5078309;28;46708;-89
2023/01/16 09:29:49;;;;;;;;;0.00;0.00;;;;;7.48;72.14;97514.72;5088750;27;45576;-89
2023/01/16 09:32:16;;;;;;;;;0.00;0.00;;;;;7.55;71.59;97518.69;5084280;27;45428;-88
2023/01/16 09:34:42;;;;;;;;;0.00;0.00;;;;;7.63;72.11;97501.63;5102120;27;45423;-89
2023/01/16 09:37:08;;;;;;;;;0.00;0.00;;;;;7.71;71.83;97494.16;5101036;27;47082;-89
2023/01/16 09:39:34;;;;;;;;;0.00;0.00;;;;;7.77;71.84;97490.38;5092571;27;45476;-89
2023/01/16 09:45:16;;;;;;;;;2.00;0.00;;;;;7.86;70.38;97492.50;5099876;27;45424;-88
2023/01/16 09:47:49;;;;;;;;;1.50;0.75;;;;;7.91;70.25;97473.84;5081544;27;47592;-89
2023/01/16 09:50:30;;;;;;;;;0.60;0.00;;;;;7.96;69.59;97484.94;5081357;27;45433;-90
2023/01/16 09:58:36;;;;;;;;;0.50;0.50;;;;;8.12;69.38;97472.66;5099906;27;45409;-89
2023/01/16 10:01:04;;;;;;;;;0.00;0.00;;;;;8.18;68.72;97480.19;5119468;27;45446;-87
2023/01/16 10:03:33;;;;;;;;;48.67;40.33;;;;;8.23;69.07;97472.88;5105263;27;45498;-87
2023/01/16 10:06:30;;;;;;;;;0.75;0.75;;;;;8.32;68.25;97466.31;5098035;27;45340;-88
2023/01/16 10:09:07;;;;;;;;;0.00;0.00;;;;;8.38;67.70;97471.19;5082363;27;47083;-89
2023/01/16 10:11:58;;;;;;;;;0.00;0.00;;;;;8.43;67.15;97463.91;5133938;27;45513;-88
2023/01/16 10:14:51;;;;;;;;;0.00;0.00;;;;;8.45;66.89;97454.16;5118518;27;45435;-89
2023/01/16 10:17:44;;;;;;;;;0.25;0.00;;;;;8.51;67.75;97442.47;5083500;27;45406;-88
2023/01/16 10:20:16;;;;;;;;;0.00;0.00;;;;;8.54;65.61;97453.63;5081896;27;45643;-89
2023/01/16 10:22:56;;;;;;;;;0.00;0.00;;;;;8.59;66.06;97434.97;5082830;27;45246;-89
2023/01/16 10:25:38;;;;;;;;;0.00;0.00;;;;;8.68;65.10;97429.19;5084560;27;45491;-89
2023/01/16 10:28:35;;;;;;;;;0.50;0.50;;;;;8.77;65.71;97423.34;5091975;27;45286;-89
2023/01/16 10:31:09;;;;;;;;;0.50;0.00;;;;;8.84;64.61;97419.44;5100211;27;46713;-90
2023/01/16 10:33:45;;;;;;;;;1.20;0.00;;;;;8.92;65.22;97419.81;5118212;27;45490;-91
2023/01/16 10:36:15;;;;;;;;;0.00;0.00;;;;;9.01;63.41;97411.38;5117578;27;45283;-92
2023/01/16 10:38:56;;;;;;;;;0.00;0.00;;;;;9.12;63.83;97420.38;5137313;27;45506;-93
2023/01/16 10:49:55;;;;;;;;;0.00;0.00;;;;;9.59;63.05;97399.00;5121606;27;44754;-90
2023/01/16 10:52:22;;;;;;;;;1.00;0.00;;;;;9.66;63.36;97374.84;5137145;27;46703;-89
2023/01/16 10:54:48;;;;;;;;;2.20;0.00;;;;;9.67;62.39;97365.16;5112436;27;45390;-92
2023/01/16 10:57:20;;;;;;;;;2.00;0.00;;;;;9.66;62.39;97377.47;5138437;27;45307;-91
2023/01/16 10:59:50;;;;;;;;;0.00;0.00;;;;;9.63;62.33;97361.03;5101871;27;45261;-91
2023/01/16 11:02:27;;;;;;;;;0.00;0.00;;;;;9.61;61.64;97357.66;5118804;27;46823;-90
2023/01/16 11:04:53;;;;;;;;;0.00;0.00;;;;;9.58;61.33;97357.84;5117466;27;45480;-92
2023/01/16 11:07:20;;;;;;;;;0.00;0.00;;;;;9.61;61.36;97357.66;5135551;27;45349;-92
2023/01/16 11:09:46;;;;;;;;;1.00;0.00;;;;;9.66;62.22;97340.63;5103115;27;45256;-91
2023/01/16 11:18:34;;;;;;;;;0.00;0.00;;;;;9.86;60.87;97318.28;5100180;27;45264;-90
2023/01/16 11:21:16;;;;;;;;;0.00;0.00;;;;;9.90;61.00;97316.25;5135060;27;45215;-90
2023/01/16 11:23:44;;;;;;;;;2.00;0.50;;;;;9.95;60.66;97324.72;5090475;27;47654;-91
2023/01/16 11:26:11;;;;;;;;;0.00;0.00;;;;;9.99;61.93;97306.00;5099030;27;45480;-90
2023/01/16 11:28:37;;;;;;;;;0.00;0.00;;;;;10.04;60.18;97311.81;5086305;27;45432;-89
2023/01/16 11:31:12;;;;;;;;;0.00;0.00;;;;;10.07;59.29;97297.56;5084019;27;45438;-92
2023/01/16 11:33:45;;;;;;;;;0.00;0.00;;;;;10.15;59.70;97292.63;5085568;27;46681;-91
2023/01/16 11:36:15;;;;;;;;;1.00;1.00;;;;;10.26;59.96;97305.94;5086889;27;45357;-90
2023/01/16 11:38:45;;;;;;;;;0.00;0.00;;;;;10.33;59.21;97285.31;5099662;27;45316;-91
2023/01/16 11:41:10;;;;;;;;;0.00;0.00;;;;;10.41;58.70;97281.19;5097808;27;45394;-90
2023/01/16 11:46:44;;;;;;;;;0.20;0.00;;;;;10.49;58.70;97272.78;5100466;27;45363;-91
2023/01/16 11:49:18;;;;;;;;;0.00;0.00;;;;;10.45;56.43;97277.41;5081978;27;45336;-91
2023/01/16 11:51:48;;;;;;;;;0.00;0.00;;;;;10.43;56.65;97286.34;5081682;27;45541;-91
2023/01/16 11:54:23;;;;;;;;;0.00;0.00;;;;;10.48;58.17;97269.28;5081098;27;47486;-91
2023/01/16 11:56:48;;;;;;;;;0.00;0.00;;;;;10.60;57.53;97267.59;5062713;28;45255;-91
2023/01/16 11:59:45;;;;;;;;;0.00;0.00;;;;;10.73;56.89;97262.28;5067926;28;45385;-92
2023/01/16 12:02:25;;;;;;;;;0.00;0.00;;;;;10.91;56.43;97245.16;5078856;28;45529;-91
2023/01/16 12:08:25;;;;;;;;;1.20;0.00;;;;;11.19;55.77;97242.25;5080887;28;45356;-91
2023/01/16 12:11:01;;;;;;;;;0.00;0.00;;;;;11.30;57.19;97241.47;5064690;28;45433;-90
2023/01/16 12:16:53;;;;;;;;;0.00;0.00;;;;;11.46;55.26;97234.09;5077635;28;45727;-89
2023/01/16 12:19:49;;;;;;;;;0.00;0.00;;;;;11.57;54.18;97227.19;5095587;27;45466;-89
2023/01/16 12:22:33;;;;;;;;;0.00;0.00;;;;;11.64;52.16;97221.34;5096558;27;45342;-89
2023/01/16 12:25:20;;;;;;;;;0.50;0.00;;;;;11.70;52.03;97220.06;5095704;27;45598;-88
2023/01/16 12:27:46;;;;;;;;;0.00;0.00;;;;;11.70;50.98;97220.91;5097499;27;46222;-86
2023/01/16 12:30:26;;;;;;;;;0.00;0.00;;;;;11.68;52.72;97209.59;5077952;27;45453;-85
2023/01/16 12:33:13;;;;;;;;;0.00;0.00;;;;;11.69;52.04;97198.09;5088454;27;45330;-89
2023/01/16 12:35:48;;;;;;;;;0.00;0.00;;;;;11.74;51.54;97190.66;5066101;27;45379;-88
2023/01/16 12:38:17;;;;;;;;;0.00;0.00;;;;;11.74;47.59;97181.88;5106597;27;47593;-87
2023/01/16 12:44:28;;;;;;;;;0.00;0.00;;;;;11.76;49.35;97185.28;5085187;27;45389;-89
2023/01/16 12:47:02;;;;;;;;;1.00;0.00;;;;;11.78;49.24;97197.41;5080429;27;45353;-90